Time;durP1;ratioP1;P1;durP2;ratioP2;P2;SDS_P1;SDS_P2;PMS_P1;PMS_P2;Temp;Humidity;BMP_temperature;BMP_pressure;BME280_temperature;BME280_humidity;BME280_pressure;Samples;Min_cycle;Max_cycle;Signal;HPM_P1;HPM_P2
2024/04/02 00:01:07;;;;;;;2.38;0.98;;;7.20;99.90;;;;;;6365865;22;20073;-79
2024/04/02 00:03:33;;;;;;;2.40;0.95;;;7.20;99.90;;;;;;6365058;22;20119;-77
2024/04/02 00:05:58;;;;;;;1.38;1.17;;;7.20;99.90;;;;;;6365886;22;20002;-79
2024/04/02 00:08:24;;;;;;;2.20;1.02;;;7.20;99.90;;;;;;6365483;22;20086;-78
2024/04/02 00:10:51;;;;;;;3.88;1.02;;;7.20;99.90;;;;;;6365461;22;20002;-79
2024/04/02 00:13:16;;;;;;;4.28;1.10;;;7.30;99.90;;;;;;6364511;22;20009;-79
2024/04/02 00:15:48;;;;;;;3.25;1.25;;;7.40;99.90;;;;;;6363506;22;20014;-79
2024/04/02 00:18:18;;;;;;;2.70;1.30;;;7.40;99.90;;;;;;6362060;22;20005;-79
2024/04/02 00:20:43;;;;;;;2.90;1.33;;;7.40;99.90;;;;;;6366118;22;20532;-78
2024/04/02 00:23:09;;;;;;;10.00;1.10;;;7.50;99.90;;;;;;6384595;22;20072;-80
2024/04/02 00:25:36;;;;;;;5.78;1.00;;;7.50;99.90;;;;;;6385689;22;20361;-79
2024/04/02 00:28:03;;;;;;;7.45;0.95;;;7.60;99.90;;;;;;6385265;22;19998;-77
2024/04/02 00:30:30;;;;;;;2.40;1.10;;;7.60;99.90;;;;;;6385752;22;19998;-79
2024/04/02 00:32:56;;;;;;;2.75;0.73;;;7.60;99.90;;;;;;6388576;22;20046;-79
2024/04/02 00:35:23;;;;;;;2.17;0.95;;;7.70;99.90;;;;;;6384230;22;20084;-77
2024/04/02 00:37:50;;;;;;;2.55;0.93;;;7.60;99.90;;;;;;6366769;22;20085;-78
2024/04/02 00:40:16;;;;;;;1.27;0.90;;;7.60;99.90;;;;;;6368562;22;20539;-79
2024/04/02 00:42:43;;;;;;;3.72;1.00;;;7.60;99.90;;;;;;6366006;22;20022;-78
2024/04/02 00:45:09;;;;;;;2.72;0.80;;;7.70;99.90;;;;;;6365497;22;20077;-77
2024/04/02 00:47:35;;;;;;;3.25;0.90;;;7.70;99.90;;;;;;6364481;22;20023;-80
2024/04/02 00:50:03;;;;;;;3.10;1.20;;;7.70;99.90;;;;;;6366126;22;20010;-80
2024/04/02 00:52:29;;;;;;;1.58;0.90;;;7.70;99.90;;;;;;6365247;22;20013;-78
2024/04/02 00:54:57;;;;;;;5.53;1.77;;;7.80;99.90;;;;;;6367160;22;20349;-78
2024/04/02 00:57:22;;;;;;;1.70;0.80;;;7.80;99.90;;;;;;6366408;22;20075;-78
2024/04/02 00:59:48;;;;;;;3.25;0.95;;;7.80;99.90;;;;;;6365931;22;19998;-78
2024/04/02 01:02:14;;;;;;;0.95;0.93;;;7.70;99.90;;;;;;6365118;22;20011;-80
2024/04/02 01:04:41;;;;;;;4.85;1.15;;;7.70;99.90;;;;;;6367031;22;20004;-80
2024/04/02 01:07:06;;;;;;;4.80;1.08;;;7.70;99.90;;;;;;6367018;22;19994;-80
2024/04/02 01:09:33;;;;;;;4.45;0.90;;;7.70;99.90;;;;;;6375210;22;20010;-78
2024/04/02 01:12:00;;;;;;;3.97;0.82;;;7.60;99.90;;;;;;6377173;22;20005;-78
2024/04/02 01:14:25;;;;;;;1.08;0.85;;;7.60;99.90;;;;;;6381344;22;20003;-78
2024/04/02 01:16:51;;;;;;;1.70;0.82;;;7.60;99.90;;;;;;6375087;22;20029;-78
2024/04/02 01:19:17;;;;;;;3.95;0.82;;;7.70;99.90;;;;;;6376976;22;20055;-78
2024/04/02 01:21:42;;;;;;;2.50;1.00;;;7.70;99.90;;;;;;6378498;22;20465;-76
2024/04/02 01:24:08;;;;;;;4.13;0.90;;;7.70;99.90;;;;;;6369186;22;20005;-77
2024/04/02 01:26:34;;;;;;;1.67;0.82;;;7.70;99.90;;;;;;6365718;22;20017;-77
2024/04/02 01:29:02;;;;;;;4.40;1.20;;;7.70;99.90;;;;;;6365468;22;20073;-79
2024/04/02 01:31:28;;;;;;;2.95;0.70;;;7.70;99.90;;;;;;6335655;22;20016;-78
2024/04/02 01:33:55;;;;;;;1.23;0.85;;;7.70;99.90;;;;;;6365180;22;20093;-77
2024/04/02 01:36:20;;;;;;;2.47;1.00;;;7.70;99.90;;;;;;6365487;22;20077;-77
2024/04/02 01:38:46;;;;;;;2.60;0.98;;;7.80;99.90;;;;;;6365116;22;20434;-78
2024/04/02 01:41:12;;;;;;;2.78;1.00;;;7.80;99.90;;;;;;6364970;22;20012;-78
2024/04/02 01:43:38;;;;;;;2.45;0.90;;;7.80;99.90;;;;;;6364779;22;20014;-79
2024/04/02 01:46:03;;;;;;;2.05;0.85;;;7.80;99.90;;;;;;6364424;22;20125;-78
2024/04/02 01:48:29;;;;;;;0.82;0.82;;;7.80;99.90;;;;;;6363298;22;20006;-78
2024/04/02 01:50:55;;;;;;;1.83;0.93;;;7.80;99.90;;;;;;6364464;22;20002;-77
2024/04/02 01:53:21;;;;;;;4.43;0.85;;;7.90;99.90;;;;;;6364693;22;20404;-76
2024/04/02 01:55:46;;;;;;;1.67;0.73;;;7.90;99.90;;;;;;6364277;22;20034;-77
2024/04/02 01:58:12;;;;;;;5.32;0.90;;;8.00;99.90;;;;;;6365568;22;19998;-78
2024/04/02 02:00:37;;;;;;;1.70;0.68;;;8.00;99.90;;;;;;6364955;22;20002;-78
2024/04/02 02:03:04;;;;;;;2.58;0.88;;;8.00;99.90;;;;;;6363198;22;20006;-77
2024/04/02 02:05:30;;;;;;;2.67;1.05;;;8.00;99.90;;;;;;6364344;22;20453;-78
2024/04/02 02:07:55;;;;;;;0.60;0.60;;;7.90;99.90;;;;;;6365632;22;20003;-80
2024/04/02 02:10:21;;;;;;;1.45;0.85;;;8.00;99.90;;;;;;6366562;22;19999;-78
2024/04/02 02:12:47;;;;;;;1.50;0.82;;;8.10;99.90;;;;;;6365306;22;20037;-79
2024/04/02 02:15:12;;;;;;;2.85;0.80;;;8.10;99.90;;;;;;6362879;22;20007;-80
2024/04/02 02:17:38;;;;;;;3.30;0.90;;;8.10;99.90;;;;;;6362102;22;19998;-80
2024/04/02 02:20:05;;;;;;;2.35;0.73;;;8.20;99.90;;;;;;6362549;22;20032;-78
2024/04/02 02:22:31;;;;;;;3.00;0.85;;;8.10;99.90;;;;;;6362950;22;20061;-78
2024/04/02 02:24:57;;;;;;;3.67;0.80;;;8.20;99.90;;;;;;6363783;22;20345;-78
2024/04/02 02:27:23;;;;;;;1.52;0.82;;;8.10;99.90;;;;;;6363766;22;20005;-78
2024/04/02 02:29:48;;;;;;;5.90;0.98;;;8.20;99.90;;;;;;6365817;22;19998;-78
2024/04/02 02:32:14;;;;;;;2.78;0.80;;;8.20;99.90;;;;;;6364890;22;20010;-78
2024/04/02 02:34:40;;;;;;;4.05;1.00;;;8.20;99.90;;;;;;6366866;22;20071;-79
2024/04/02 02:37:05;;;;;;;2.45;0.60;;;8.00;99.90;;;;;;6365080;22;20010;-80
2024/04/02 02:39:31;;;;;;;0.70;0.68;;;7.90;99.90;;;;;;6364882;22;19994;-79
2024/04/02 02:41:57;;;;;;;3.13;0.70;;;8.00;99.90;;;;;;6364958;22;20031;-80
2024/04/02 02:44:23;;;;;;;0.70;0.70;;;8.00;99.90;;;;;;6365501;22;19998;-79
2024/04/02 02:46:48;;;;;;;1.95;0.80;;;8.00;99.90;;;;;;6334903;22;20700;-80
2024/04/02 02:49:14;;;;;;;1.65;0.68;;;8.00;99.90;;;;;;6365534;22;20006;-79
2024/04/02 02:51:40;;;;;;;0.60;0.60;;;8.00;99.90;;;;;;6366341;22;20003;-80
2024/04/02 02:54:06;;;;;;;4.28;0.90;;;7.90;99.90;;;;;;6367502;22;20353;-80
2024/04/02 02:56:31;;;;;;;4.15;0.93;;;7.90;99.90;;;;;;6365539;22;20044;-79
2024/04/02 02:58:57;;;;;;;2.25;0.93;;;7.80;99.90;;;;;;6366931;22;20022;-80
2024/04/02 03:01:23;;;;;;;1.35;0.80;;;7.80;99.90;;;;;;6376908;22;20003;-78
2024/04/02 03:03:49;;;;;;;2.53;1.10;;;7.70;99.90;;;;;;6369488;22;20010;-79
2024/04/02 03:06:15;;;;;;;2.00;0.90;;;7.80;99.90;;;;;;6368665;22;20028;-80
2024/04/02 03:08:41;;;;;;;3.42;1.05;;;7.80;99.90;;;;;;6366589;22;20493;-80
2024/04/02 03:11:07;;;;;;;5.63;1.20;;;7.90;99.90;;;;;;6368091;22;20007;-79
2024/04/02 03:13:34;;;;;;;3.30;0.90;;;8.00;99.90;;;;;;6366886;22;20494;-80
2024/04/02 03:16:03;;;;;;;1.83;0.90;;;7.90;99.90;;;;;;6365970;22;20014;-79
2024/04/02 03:18:30;;;;;;;3.40;0.90;;;7.90;99.90;;;;;;6365407;22;19994;-80
2024/04/02 03:20:56;;;;;;;2.78;0.80;;;7.90;99.90;;;;;;6366189;22;20440;-80
2024/04/02 03:23:22;;;;;;;2.75;1.10;;;7.90;99.90;;;;;;6368676;22;20022;-80
2024/04/02 03:25:54;;;;;;;2.53;1.08;;;7.90;99.90;;;;;;6368022;22;20082;-80
2024/04/02 03:28:20;;;;;;;6.60;1.10;;;8.00;99.90;;;;;;6369692;22;19999;-80
2024/04/02 03:30:47;;;;;;;2.75;0.93;;;8.10;99.90;;;;;;6366504;22;19998;-80
2024/04/02 03:33:13;;;;;;;2.45;1.00;;;8.00;99.90;;;;;;6368030;22;20082;-80
2024/04/02 03:35:39;;;;;;;5.45;1.42;;;8.10;99.90;;;;;;6370402;22;20006;-80
2024/04/02 03:38:05;;;;;;;3.55;1.00;;;8.10;99.90;;;;;;6368251;22;20455;-78
2024/04/02 03:40:36;;;;;;;1.27;0.70;;;8.10;99.90;;;;;;6366162;22;20002;-79
2024/04/02 03:43:02;;;;;;;2.78;1.50;;;8.10;99.90;;;;;;6366304;22;20051;-80
2024/04/02 03:45:28;;;;;;;2.83;0.95;;;8.00;99.90;;;;;;6367475;22;20039;-80
2024/04/02 03:47:53;;;;;;;5.25;1.10;;;8.10;99.90;;;;;;6365787;22;20577;-79
2024/04/02 03:50:19;;;;;;;7.00;1.20;;;8.10;99.90;;;;;;6366195;22;20005;-79
2024/04/02 03:52:44;;;;;;;7.78;1.17;;;8.10;99.90;;;;;;6366843;22;20047;-79
2024/04/02 03:55:10;;;;;;;3.05;0.93;;;8.10;99.90;;;;;;6366941;22;20069;-79
2024/04/02 03:57:36;;;;;;;7.22;1.13;;;8.00;99.90;;;;;;6367571;22;20002;-80
2024/04/02 04:00:01;;;;;;;8.30;1.20;;;8.20;99.90;;;;;;6367019;22;20357;-80
2024/04/02 04:02:27;;;;;;;3.90;1.33;;;8.10;99.90;;;;;;6364033;22;20043;-79
2024/04/02 04:04:53;;;;;;;3.58;1.08;;;8.20;99.90;;;;;;6365928;22;19995;-79
2024/04/02 04:07:18;;;;;;;8.70;1.42;;;8.10;99.90;;;;;;6366566;22;20064;-80
2024/04/02 04:09:46;;;;;;;4.65;1.33;;;8.10;99.90;;;;;;6369625;22;20060;-79
2024/04/02 04:12:12;;;;;;;7.50;1.42;;;8.10;99.90;;;;;;6368562;22;20006;-78
2024/04/02 04:14:38;;;;;;;1.30;1.20;;;8.10;99.90;;;;;;6366540;22;20081;-80
2024/04/02 04:17:04;;;;;;;7.57;1.60;;;8.10;99.90;;;;;;6363792;22;20879;-78
2024/04/02 04:19:30;;;;;;;7.57;1.40;;;8.10;99.90;;;;;;6367184;22;20460;-79
2024/04/02 04:21:55;;;;;;;11.57;1.52;;;8.20;99.90;;;;;;6366903;22;20014;-80
2024/04/02 04:24:23;;;;;;;5.68;1.63;;;8.20;99.90;;;;;;6366851;22;19998;-79
2024/04/02 04:26:48;;;;;;;9.02;1.48;;;8.20;99.90;;;;;;6363993;22;20009;-80
2024/04/02 04:29:14;;;;;;;8.75;1.48;;;8.20;99.90;;;;;;6366991;22;19999;-79
2024/04/02 04:31:47;;;;;;;8.60;1.75;;;8.20;99.90;;;;;;6367739;22;20041;-80
2024/04/02 04:34:14;;;;;;;14.43;1.90;;;8.20;99.90;;;;;;6368700;22;20005;-80
2024/04/02 04:36:40;;;;;;;11.52;1.70;;;8.10;99.90;;;;;;6367080;22;20018;-80
2024/04/02 04:39:05;;;;;;;12.50;1.65;;;8.10;99.90;;;;;;6369142;22;20002;-80
2024/04/02 04:41:31;;;;;;;8.25;2.05;;;8.20;99.90;;;;;;6367141;22;19999;-82
2024/04/02 04:43:57;;;;;;;8.48;1.60;;;8.20;99.90;;;;;;6368169;22;20005;-80
2024/04/02 04:46:24;;;;;;;11.07;1.75;;;8.20;99.90;;;;;;6364927;22;20007;-79
2024/04/02 04:48:50;;;;;;;15.45;1.88;;;8.20;99.90;;;;;;6365462;22;19994;-81
2024/04/02 04:51:16;;;;;;;13.43;2.03;;;8.20;99.90;;;;;;6364945;22;20003;-80
2024/04/02 04:53:42;;;;;;;14.57;2.00;;;8.30;99.90;;;;;;6366188;22;19995;-80
2024/04/02 04:56:08;;;;;;;11.27;1.85;;;8.20;99.90;;;;;;6368567;22;20530;-80
2024/04/02 04:58:34;;;;;;;10.13;2.67;;;8.30;99.90;;;;;;6367877;22;20021;-80
2024/04/02 05:01:01;;;;;;;19.55;3.33;;;8.30;99.90;;;;;;6368870;22;20033;-80
2024/04/02 05:03:27;;;;;;;14.27;2.08;;;8.20;99.90;;;;;;6365823;22;19995;-79
2024/04/02 05:06:09;;;;;;;14.40;1.83;;;8.30;99.90;;;;;;6368317;22;20025;-80
2024/04/02 05:08:36;;;;;;;10.18;2.53;;;8.20;99.90;;;;;;6368216;22;20034;-80
2024/04/02 05:11:03;;;;;;;11.68;1.95;;;8.20;99.90;;;;;;6366134;22;20003;-83
2024/04/02 05:13:30;;;;;;;12.95;2.42;;;8.20;99.90;;;;;;6369282;22;19999;-83
2024/04/02 05:15:56;;;;;;;10.95;1.63;;;8.20;99.90;;;;;;6370613;22;20491;-81
2024/04/02 05:18:22;;;;;;;12.82;2.03;;;8.10;99.90;;;;;;6368166;22;20010;-81
2024/04/02 05:20:48;;;;;;;15.32;2.50;;;8.20;99.90;;;;;;6365492;22;20013;-82
2024/04/02 05:23:13;;;;;;;10.38;2.47;;;8.20;99.90;;;;;;6367773;22;20089;-81
2024/04/02 05:25:39;;;;;;;14.48;2.03;;;8.20;99.90;;;;;;6365308;22;20041;-80
2024/04/02 05:28:06;;;;;;;10.60;1.83;;;8.20;99.90;;;;;;6364212;22;20002;-79
2024/04/02 05:30:32;;;;;;;9.50;1.92;;;8.00;99.90;;;;;;6364776;22;20059;-81
2024/04/02 05:32:58;;;;;;;13.23;2.83;;;8.00;99.90;;;;;;6364288;22;20440;-80
2024/04/02 05:35:23;;;;;;;6.38;1.67;;;7.90;99.90;;;;;;6365543;22;20077;-78
2024/04/02 05:37:51;;;;;;;13.40;1.98;;;7.90;99.90;;;;;;6365074;22;20052;-81
2024/04/02 05:40:18;;;;;;;15.65;2.13;;;8.10;99.90;;;;;;6364094;22;19998;-80
2024/04/02 05:42:45;;;;;;;16.92;2.25;;;8.00;99.90;;;;;;6363594;22;20002;-79
2024/04/02 05:45:12;;;;;;;8.77;1.63;;;8.10;99.90;;;;;;6364031;22;19995;-80
2024/04/02 05:47:38;;;;;;;22.65;2.85;;;8.00;99.90;;;;;;6362326;22;20044;-80
2024/04/02 05:50:04;;;;;;;8.15;2.15;;;8.00;99.90;;;;;;6363422;22;20461;-79
2024/04/02 05:52:30;;;;;;;14.70;2.03;;;8.10;99.90;;;;;;6364048;22;19999;-81
2024/04/02 05:54:56;;;;;;;17.85;2.58;;;8.10;99.90;;;;;;6364401;22;19999;-77
2024/04/02 05:57:21;;;;;;;12.77;2.03;;;8.10;99.90;;;;;;6363807;22;20134;-80
2024/04/02 05:59:50;;;;;;;7.32;1.30;;;8.10;99.90;;;;;;6364290;22;20037;-80
2024/04/02 06:02:19;;;;;;;8.25;2.40;;;8.00;99.90;;;;;;6363414;22;20395;-80
2024/04/02 06:04:48;;;;;;;15.98;2.00;;;8.10;99.90;;;;;;6366337;22;19994;-79
2024/04/02 06:07:14;;;;;;;10.73;2.05;;;8.30;99.90;;;;;;6366773;22;20009;-81
2024/04/02 06:09:40;;;;;;;9.23;1.95;;;8.10;99.90;;;;;;6366978;22;20006;-83
2024/04/02 06:12:06;;;;;;;6.53;1.88;;;8.20;99.90;;;;;;6366071;22;19999;-81
2024/04/02 06:14:33;;;;;;;12.13;1.77;;;8.10;99.90;;;;;;6364977;22;20030;-81
2024/04/02 06:16:59;;;;;;;12.88;1.58;;;8.20;99.90;;;;;;6364860;22;20118;-80
2024/04/02 06:19:25;;;;;;;14.63;2.00;;;8.20;99.90;;;;;;6366289;22;20460;-81
2024/04/02 06:21:50;;;;;;;14.45;2.15;;;8.20;99.90;;;;;;6366450;22;20018;-82
2024/04/02 06:24:16;;;;;;;8.02;1.83;;;8.30;99.90;;;;;;6366852;22;20078;-79
2024/04/02 06:26:42;;;;;;;11.15;1.70;;;8.20;99.90;;;;;;6365257;22;19999;-81
2024/04/02 06:29:07;;;;;;;11.90;2.15;;;8.20;99.90;;;;;;6366868;22;20467;-80
2024/04/02 06:31:33;;;;;;;5.03;1.25;;;8.20;99.90;;;;;;6364959;22;20081;-81
2024/04/02 06:33:59;;;;;;;14.00;1.52;;;8.20;99.90;;;;;;6367389;22;20055;-83
2024/04/02 06:36:24;;;;;;;13.88;2.05;;;8.20;99.90;;;;;;6366584;22;20017;-79
2024/04/02 06:38:50;;;;;;;9.93;1.77;;;8.30;99.90;;;;;;6366993;22;19998;-82
2024/04/02 06:41:16;;;;;;;16.98;2.00;;;8.50;99.90;;;;;;6366694;22;20061;-80
2024/04/02 06:43:42;;;;;;;10.15;2.22;;;8.50;99.90;;;;;;6366654;22;20050;-79
2024/04/02 06:46:07;;;;;;;16.05;2.35;;;8.50;99.90;;;;;;6366372;22;20406;-80
2024/04/02 06:48:33;;;;;;;16.52;2.05;;;8.50;99.90;;;;;;6365335;22;20002;-80
2024/04/02 06:51:04;;;;;;;7.20;1.60;;;8.60;99.90;;;;;;6366575;22;20128;-81
2024/04/02 06:53:34;;;;;;;9.90;1.70;;;8.60;99.90;;;;;;6366512;22;20127;-79
2024/04/02 06:55:59;;;;;;;15.13;2.35;;;8.70;99.90;;;;;;6366973;22;20010;-82
2024/04/02 06:58:25;;;;;;;12.13;2.15;;;8.70;99.90;;;;;;6366420;22;20002;-80
2024/04/02 07:00:51;;;;;;;7.10;1.75;;;8.70;99.90;;;;;;6366206;22;20002;-79
2024/04/02 07:03:18;;;;;;;13.93;1.77;;;8.70;99.90;;;;;;6364966;22;19999;-79
2024/04/02 07:05:45;;;;;;;9.27;1.55;;;8.70;99.90;;;;;;6366700;22;20048;-80
2024/04/02 07:08:11;;;;;;;13.15;2.38;;;8.80;99.90;;;;;;6366505;22;20377;-79
2024/04/02 07:10:39;;;;;;;16.85;1.55;;;8.90;99.90;;;;;;6366755;22;19998;-79
2024/04/02 07:13:05;;;;;;;15.40;1.98;;;8.80;99.90;;;;;;6365906;22;20041;-79
2024/04/02 07:15:31;;;;;;;14.63;2.05;;;8.80;99.90;;;;;;6365747;22;20445;-80
2024/04/02 07:17:57;;;;;;;17.40;2.60;;;8.80;99.90;;;;;;6364262;22;20003;-79
2024/04/02 07:20:23;;;;;;;8.52;1.85;;;8.80;99.90;;;;;;6366871;22;20029;-79
2024/04/02 07:22:49;;;;;;;10.02;1.95;;;8.90;99.90;;;;;;6366006;22;20079;-80
2024/04/02 07:25:15;;;;;;;11.13;1.60;;;8.80;99.90;;;;;;6366325;22;20606;-81
2024/04/02 07:27:40;;;;;;;16.90;2.83;;;8.90;99.90;;;;;;6365605;22;20077;-80
2024/04/02 07:30:07;;;;;;;10.70;1.63;;;8.90;99.90;;;;;;6366302;22;19995;-81
2024/04/02 07:32:33;;;;;;;19.60;3.33;;;8.80;99.90;;;;;;6364577;22;19999;-81
2024/04/02 07:34:59;;;;;;;7.95;1.27;;;8.80;99.90;;;;;;6366304;22;20024;-80
2024/04/02 07:37:26;;;;;;;11.15;1.52;;;8.70;99.90;;;;;;6366148;22;20018;-80
2024/04/02 07:39:52;;;;;;;12.52;2.13;;;8.80;99.90;;;;;;6366624;22;20024;-80
2024/04/02 07:42:18;;;;;;;15.77;2.22;;;8.80;99.90;;;;;;6365839;22;20341;-80
2024/04/02 07:44:44;;;;;;;12.90;2.00;;;8.80;99.90;;;;;;6366184;22;20003;-81
2024/04/02 07:47:10;;;;;;;8.65;2.33;;;8.60;99.90;;;;;;6364974;22;20036;-81
2024/04/02 07:49:35;;;;;;;12.35;2.03;;;8.50;99.90;;;;;;6365904;22;20002;-82
2024/04/02 07:52:01;;;;;;;9.18;2.13;;;8.50;99.90;;;;;;6366038;22;20026;-80
2024/04/02 07:54:26;;;;;;;11.10;2.47;;;8.50;99.90;;;;;;6366664;22;20033;-82
2024/04/02 07:56:53;;;;;;;11.43;2.42;;;8.70;99.90;;;;;;6365822;22;20010;-81
2024/04/02 07:59:20;;;;;;;8.82;2.10;;;8.80;99.90;;;;;;6366837;22;19999;-81
2024/04/02 08:01:45;;;;;;;22.10;1.92;;;9.10;99.90;;;;;;6364815;22;20067;-82
2024/04/02 08:04:11;;;;;;;8.88;1.95;;;9.20;99.90;;;;;;6366362;22;20006;-81
2024/04/02 08:06:37;;;;;;;9.05;1.73;;;9.20;99.90;;;;;;6365832;22;20001;-81
2024/04/02 08:09:02;;;;;;;11.75;1.73;;;9.20;99.90;;;;;;6365865;22;20003;-82
2024/04/02 08:11:28;;;;;;;13.27;1.65;;;9.10;99.90;;;;;;6365583;22;20002;-82
2024/04/02 08:13:54;;;;;;;11.73;2.17;;;9.20;99.90;;;;;;6366037;22;20014;-80
2024/04/02 08:16:22;;;;;;;11.65;2.10;;;9.30;99.90;;;;;;6364986;22;20038;-81
2024/04/02 08:18:48;;;;;;;17.50;2.88;;;9.40;99.90;;;;;;6365473;22;20081;-82
2024/04/02 08:21:14;;;;;;;16.02;1.60;;;9.50;99.90;;;;;;6366082;22;20042;-80
2024/04/02 08:23:40;;;;;;;7.45;1.40;;;9.60;84.40;;;;;;6365800;22;20010;-81
2024/04/02 08:26:06;;;;;;;11.20;1.63;;;9.40;68.40;;;;;;6365241;22;20495;-82
2024/04/02 08:28:32;;;;;;;8.65;1.55;;;9.40;99.90;;;;;;6365462;22;20001;-80
2024/04/02 08:30:58;;;;;;;9.75;1.55;;;9.40;99.00;;;;;;6365778;22;20006;-82
2024/04/02 08:33:25;;;;;;;7.93;1.52;;;9.40;99.90;;;;;;6365030;22;20460;-80
2024/04/02 08:35:51;;;;;;;10.73;2.08;;;9.60;64.30;;;;;;6365756;22;20018;-81
2024/04/02 08:38:17;;;;;;;14.57;1.65;;;9.70;99.90;;;;;;6366415;22;19995;-83
2024/04/02 08:40:50;;;;;;;8.93;1.42;;;10.10;97.80;;;;;;6365324;22;20005;-83
2024/04/02 08:43:16;;;;;;;6.18;1.35;;;9.90;98.10;;;;;;6365652;22;19994;-82
2024/04/02 08:45:45;;;;;;;10.10;1.58;;;9.60;96.30;;;;;;6366049;22;20109;-83
2024/04/02 08:48:11;;;;;;;9.38;1.63;;;9.60;95.50;;;;;;6364697;22;20333;-82
2024/04/02 08:50:41;;;;;;;6.50;1.52;;;9.80;99.90;;;;;;6366295;22;19999;-80
2024/04/02 08:53:07;;;;;;;13.73;1.75;;;9.90;99.90;;;;;;6366505;22;20339;-81
2024/04/02 08:55:36;;;;;;;13.45;1.95;;;9.80;99.90;;;;;;6365936;22;20002;-83
2024/04/02 08:58:05;;;;;;;7.38;1.45;;;9.70;99.90;;;;;;6365180;22;20341;-82
2024/04/02 09:00:31;;;;;;;17.88;2.67;;;9.60;99.90;;;;;;6366140;22;20097;-83
2024/04/02 09:02:57;;;;;;;7.63;1.77;;;9.50;99.90;;;;;;6364830;22;20045;-82
2024/04/02 09:05:23;;;;;;;10.85;1.73;;;9.40;99.90;;;;;;6366324;22;20629;-81
2024/04/02 09:07:50;;;;;;;9.70;1.60;;;9.40;99.90;;;;;;6365695;22;20006;-82
2024/04/02 09:10:16;;;;;;;9.35;1.58;;;9.40;99.90;;;;;;6366294;22;19995;-82
2024/04/02 09:12:41;;;;;;;9.70;2.03;;;9.50;99.90;;;;;;6338055;22;20012;-81
2024/04/02 09:15:07;;;;;;;11.27;1.92;;;9.50;99.90;;;;;;6365944;22;19994;-81
2024/04/02 09:17:34;;;;;;;13.18;2.15;;;9.30;99.90;;;;;;6364095;22;20011;-83
2024/04/02 09:20:00;;;;;;;12.40;1.70;;;9.20;99.90;;;;;;6338531;22;20006;-81
2024/04/02 09:22:26;;;;;;;15.25;1.90;;;9.20;99.90;;;;;;6366307;22;20021;-81
2024/04/02 09:24:51;;;;;;;7.90;1.30;;;9.20;99.90;;;;;;6366170;22;19999;-80
2024/04/02 09:27:18;;;;;;;8.85;1.65;;;9.30;99.90;;;;;;6337710;22;20030;-84
2024/04/02 09:29:44;;;;;;;14.00;1.58;;;9.30;99.90;;;;;;6366348;22;20468;-78
2024/04/02 09:32:10;;;;;;;8.38;1.80;;;9.60;99.90;;;;;;6364932;22;20005;-83
2024/04/02 09:34:38;;;;;;;9.48;1.80;;;9.70;99.90;;;;;;6365663;22;20002;-81
2024/04/02 09:37:29;;;;;;;9.88;1.77;;;9.70;99.90;;;;;;6365088;22;20014;-80
2024/04/02 09:39:56;;;;;;;10.98;1.88;;;9.70;95.90;;;;;;6346150;22;20006;-82
2024/04/02 09:42:23;;;;;;;13.48;1.77;;;9.80;99.90;;;;;;6365331;22;20009;-84
2024/04/02 09:44:51;;;;;;;7.55;1.50;;;10.40;69.60;;;;;;6365363;22;20002;-82
2024/04/02 09:47:18;;;;;;;4.53;1.25;;;10.70;89.00;;;;;;6364283;22;19994;-82
2024/04/02 09:49:44;;;;;;;6.85;1.30;;;10.30;44.40;;;;;;6365366;22;20073;-81
2024/04/02 09:52:10;;;;;;;13.30;2.17;;;10.20;95.50;;;;;;6365757;22;19995;-82
2024/04/02 09:54:36;;;;;;;3.60;1.58;;;10.20;59.20;;;;;;6365183;22;20007;-81
2024/04/02 09:57:03;;;;;;;11.05;1.83;;;10.40;30.10;;;;;;6365232;22;20049;-81
2024/04/02 09:59:29;;;;;;;10.50;1.70;;;10.90;19.50;;;;;;6365399;22;19998;-81
2024/04/02 10:01:56;;;;;;;8.85;2.45;;;11.00;36.50;;;;;;6363984;22;20006;-81
2024/04/02 10:04:22;;;;;;;7.78;1.73;;;11.10;43.70;;;;;;6366698;22;20103;-82
2024/04/02 10:06:52;;;;;;;8.93;1.63;;;10.90;17.30;;;;;;6365807;22;20010;-83
2024/04/02 10:09:18;;;;;;;11.00;1.30;;;11.40;1.00;;;;;;6365399;22;19995;-83
2024/04/02 10:11:48;;;;;;;13.55;2.53;;;11.90;1.00;;;;;;6364910;22;20002;-82
2024/04/02 10:14:16;;;;;;;16.50;1.45;;;12.30;1.00;;;;;;6365676;22;20073;-83
2024/04/02 10:16:43;;;;;;;8.45;1.00;;;11.90;1.00;;;;;;6363449;22;20063;-81
2024/04/02 10:19:13;;;;;;;8.57;2.05;;;11.50;1.00;;;;;;6365377;22;20337;-81
2024/04/02 10:21:41;;;;;;;8.88;1.23;;;11.00;1.00;;;;;;6365434;22;20010;-80
2024/04/02 10:24:09;;;;;;;10.63;1.80;;;10.60;1.00;;;;;;6365105;22;20005;-81
2024/04/02 10:26:37;;;;;;;7.32;1.33;;;10.40;1.00;;;;;;6364658;22;20015;-82
2024/04/02 10:29:03;;;;;;;10.63;1.80;;;10.40;1.00;;;;;;6366299;22;20001;-82
2024/04/02 10:31:42;;;;;;;15.60;1.70;;;10.40;1.00;;;;;;6363822;22;20006;-82
2024/04/02 10:34:12;;;;;;;7.90;1.63;;;10.40;29.20;;;;;;6365797;22;20362;-79
2024/04/02 10:36:39;;;;;;;12.23;1.30;;;10.50;1.00;;;;;;6365676;22;20105;-82
2024/04/02 10:39:09;;;;;;;9.93;1.45;;;10.90;1.00;;;;;;6365575;22;20002;-80
2024/04/02 10:41:40;;;;;;;13.00;2.15;;;11.10;1.00;;;;;;6364747;22;20086;-80
2024/04/02 10:44:06;;;;;;;13.25;1.58;;;11.90;1.00;;;;;;6340063;22;20450;-81
2024/04/02 10:46:34;;;;;;;14.52;2.17;;;11.90;1.00;;;;;;6363405;22;20082;-81
2024/04/02 10:49:00;;;;;;;11.25;2.05;;;11.50;1.00;;;;;;6365853;22;20463;-81
2024/04/02 10:51:27;;;;;;;6.82;1.27;;;11.50;1.00;;;;;;6367053;22;20008;-82
2024/04/02 10:53:54;;;;;;;6.05;1.35;;;12.70;99.90;;;;;;6367067;22;20009;-82
2024/04/02 10:56:21;;;;;;;9.98;1.55;;;12.70;99.90;;;;;;6366629;22;20006;-81
2024/04/02 10:58:48;;;;;;;15.48;1.60;;;12.00;99.90;;;;;;6366648;22;20047;-82
2024/04/02 11:01:14;;;;;;;10.73;1.75;;;11.80;99.90;;;;;;6366016;22;20540;-81
2024/04/02 11:03:41;;;;;;;5.90;1.50;;;11.60;1.00;;;;;;6365409;22;20061;-81
2024/04/02 11:06:07;;;;;;;10.02;1.98;;;11.50;99.90;;;;;;6367020;22;20373;-81
2024/04/02 11:08:37;;;;;;;10.52;1.95;;;11.60;99.90;;;;;;6366632;22;20003;-81
2024/04/02 11:11:04;;;;;;;6.22;1.23;;;12.00;99.90;;;;;;6367137;22;20002;-81
2024/04/02 11:13:30;;;;;;;9.38;1.27;;;12.40;99.90;;;;;;6367384;22;19994;-83
2024/04/02 11:15:57;;;;;;;6.93;1.30;;;11.90;99.90;;;;;;6367793;22;20127;-81
2024/04/02 11:18:24;;;;;;;7.70;1.63;;;11.70;99.90;;;;;;6365791;22;20001;-84
2024/04/02 11:20:59;;;;;;;5.68;1.13;;;11.90;99.90;;;;;;6367701;22;20006;-84
2024/04/02 11:26:18;;;;;;;5.18;1.10;;;12.50;99.90;;;;;;6367227;22;19947;-84
2024/04/02 11:28:44;;;;;;;4.53;1.02;;;12.10;99.90;;;;;;6366986;22;20465;-84
2024/04/02 11:31:11;;;;;;;6.97;1.13;;;12.20;99.90;;;;;;6366716;22;20006;-84
2024/04/02 11:33:38;;;;;;;10.20;1.00;;;12.10;99.90;;;;;;6367295;22;20373;-84
2024/04/02 11:36:05;;;;;;;9.05;1.88;;;11.80;99.90;;;;;;6368874;22;20441;-83
2024/04/02 11:38:31;;;;;;;6.78;1.30;;;11.40;99.90;;;;;;6372076;22;20341;-83
2024/04/02 11:40:57;;;;;;;10.45;1.50;;;12.20;99.90;;;;;;6367552;22;20029;-82
2024/04/02 11:43:23;;;;;;;5.10;0.90;;;12.40;99.90;;;;;;6370312;22;20472;-84
2024/04/02 11:45:50;;;;;;;11.82;1.30;;;11.70;99.90;;;;;;6368657;22;20052;-84
2024/04/02 11:48:15;;;;;;;16.42;2.15;;;11.70;99.90;;;;;;6367108;22;19999;-84
2024/04/02 11:50:41;;;;;;;11.63;2.08;;;11.30;99.90;;;;;;6368447;22;20006;-83
2024/04/02 11:53:07;;;;;;;6.40;1.20;;;10.90;1.00;;;;;;6366791;22;20353;-80
2024/04/02 11:55:32;;;;;;;6.50;1.20;;;10.20;64.80;;;;;;6365448;22;20005;-83
2024/04/02 12:00:42;;;;;;;9.40;1.63;;;11.90;99.90;;;;;;6366463;22;20043;-81
2024/04/02 12:03:07;;;;;;;9.85;1.30;;;12.90;99.90;;;;;;6364750;22;20374;-81
2024/04/02 12:05:35;;;;;;;9.10;1.13;;;13.20;8.70;;;;;;6366855;22;20001;-80
2024/04/02 12:08:01;;;;;;;8.05;1.10;;;13.30;1.00;;;;;;6366958;22;20010;-80
2024/04/02 12:10:27;;;;;;;6.57;1.23;;;13.90;1.00;;;;;;6366575;22;19999;-81
2024/04/02 12:12:52;;;;;;;9.55;1.85;;;12.30;99.90;;;;;;6366695;22;20344;-82
2024/04/02 12:15:18;;;;;;;6.75;1.50;;;13.00;99.90;;;;;;6366713;22;20001;-82
2024/04/02 12:17:43;;;;;;;3.80;0.90;;;12.80;99.90;;;;;;6364425;22;20002;-81
2024/04/02 12:20:11;;;;;;;3.45;1.10;;;13.40;99.90;;;;;;6367310;22;20003;-81
2024/04/02 12:22:37;;;;;;;7.93;1.23;;;13.20;99.90;;;;;;6367583;22;20014;-83
2024/04/02 12:25:05;;;;;;;15.75;1.92;;;12.20;99.90;;;;;;6367855;22;20395;-82
2024/04/02 12:27:30;;;;;;;9.88;1.33;;;12.30;1.00;;;;;;6364038;22;20005;-81
2024/04/02 12:29:57;;;;;;;8.38;1.25;;;13.80;99.90;;;;;;6337237;22;20034;-82
2024/04/02 12:32:25;;;;;;;7.55;1.65;;;12.70;99.90;;;;;;6365196;22;19995;-83
2024/04/02 12:34:50;;;;;;;8.68;1.23;;;13.00;1.00;;;;;;6367092;22;20009;-82
2024/04/02 12:37:16;;;;;;;8.88;1.23;;;14.40;99.90;;;;;;6367132;22;20014;-81
2024/04/02 12:39:44;;;;;;;7.68;1.08;;;14.20;99.90;;;;;;6338805;22;20013;-80
2024/04/02 12:42:10;;;;;;;12.15;1.73;;;13.20;99.90;;;;;;6367362;22;19998;-82
2024/04/02 12:44:39;;;;;;;6.32;1.40;;;12.60;99.90;;;;;;6364453;22;20027;-81
2024/04/02 12:47:08;;;;;;;9.15;1.23;;;13.30;99.90;;;;;;6363638;22;20034;-80
2024/04/02 12:49:35;;;;;;;9.60;1.35;;;12.70;99.90;;;;;;6365948;22;20729;-81
2024/04/02 12:52:01;;;;;;;15.18;1.50;;;12.70;99.90;;;;;;6366473;22;20024;-81